Stolt Jade — ZCSQ4 — position and weather

sailwx.info

Track history (hours):
 
Tides and Currents Weather Stations Pressure Air Temp Water Temp Dewpoint Dewpoint Depression Visibility Wind Speed Wind Dir Waves Ship Positions

Stolt Jade

Last reported at 2015-Jul-03 05:33 UTC. Time now 2015-Jul-06 09:09 UTC.
Position N 25°47' W 079°39'.

Length 175 m; draft 9 m.

Type: Ship (hazmat cat C). MMSI: 319439000.

Date/timePositionNaut miles runAvg speedWind from/ knotsBaromVisibWave heightAir tempDewpointWater temp
2015-Jul-03 05:33N 25°47' W 079°39'1211.8
2015-Jul-03 04:33N 25°59' W 079°38'1211.8
2015-Jul-03 03:33N 26°11' W 079°36'1211.6
2015-Jul-03 02:30N 26°23' W 079°35'1111.5
2015-Jul-03 01:33N 26°34' W 079°34'1211.5
2015-Jul-03 00:32N 26°45' W 079°32'1211.8
2015-Jul-02 23:32N 26°57' W 079°31'1211.8
2015-Jul-02 22:32N 27°09' W 079°29'28212.2
2015-Jul-01 23:24N 31°46' W 080°25'1113.5
2015-Jul-01 22:34N 31°53' W 080°36'1312.7
2015-Jul-01 21:33N 32°01' W 080°48'9 9.1
2015-Jul-01 20:33N 32°04' W 080°58'6 6.5
2015-Jul-01 19:33N 32°05' W 081°05'2 1.6
2015-Jul-01 18:29N 32°06' W 081°07'0 0.0
2015-Jul-01 17:32N 32°06' W 081°07'0 0.0
2015-Jul-01 16:32N 32°06' W 081°07'0 0.0
2015-Jul-01 15:32N 32°06' W 081°07'0 0.0
2015-Jul-01 14:32N 32°06' W 081°07'0 0.0
2015-Jul-01 13:32N 32°06' W 081°07'0 0.0
2015-Jul-01 12:32N 32°06' W 081°07'0 0.0
2015-Jul-01 11:32N 32°06' W 081°07'0 0.0
2015-Jul-01 10:32N 32°06' W 081°07'2 1.7
2015-Jul-01 09:34N 32°05' W 081°05'8 8.0
2015-Jul-01 08:34N 32°03' W 080°56'1211.9
2015-Jul-01 07:34N 31°58' W 080°44'8 7.8
2015-Jul-01 06:33N 31°58' W 080°34'7 3.4
2015-Jul-01 04:29N 32°01' W 080°27'0 0.0
2015-Jun-30 20:05N 32°01' W 080°27'0 0.0
2015-Jun-30 19:29N 32°01' W 080°27'0 0.0
2015-Jun-30 18:29N 32°01' W 080°27'0 0.0
2015-Jun-30 17:32N 32°01' W 080°27'0 0.0
2015-Jun-30 16:23N 32°01' W 080°27'0 0.0
2015-Jun-30 15:32N 32°01' W 080°27'0 0.0
2015-Jun-30 13:20N 32°01' W 080°27'0 0.0
2015-Jun-30 12:32N 32°01' W 080°27'0 0.0
2015-Jun-30 11:23N 32°01' W 080°27'0 0.0
2015-Jun-30 09:32N 32°01' W 080°27'0 0.0
2015-Jun-30 08:29N 32°01' W 080°27'0 0.0
2015-Jun-30 07:32N 32°01' W 080°27'0 0.0
2015-Jun-30 06:32N 32°01' W 080°27'9 8.7
2015-Jun-30 05:33N 32°02' W 080°17'1413.9
2015-Jun-30 04:33N 32°05' W 080°01'  
2015-Jun-27 12:06N 37°22' W 074°01'1316.1
2015-Jun-27 11:19N 37°34' W 073°55'1315.9
2015-Jun-27 10:29N 37°46' W 073°50'3015.7
2015-Jun-27 08:34N 38°15' W 073°37'1515.3
2015-Jun-27 07:33N 38°30' W 073°31'1515.2
2015-Jun-27 06:34N 38°44' W 073°25'1515.3
2015-Jun-27 05:33N 38°59' W 073°18'1515.3
2015-Jun-27 04:33N 39°13' W 073°12'1515.0
2015-Jun-27 03:32N 39°28' W 073°05'1414.1
2015-Jun-27 02:33N 39°41' W 073°05'1414.6
2015-Jun-27 01:34N 39°54' W 073°15'1515.0
2015-Jun-27 00:34N 40°05' W 073°27'1514.9
2015-Jun-26 23:33N 40°17' W 073°39'1413.6
2015-Jun-26 22:31N 40°28' W 073°52'1212.8
2015-Jun-26 21:33N 40°37' W 074°03'5 5.3
2015-Jun-26 20:33N 40°40' W 074°09'2 1.8
2015-Jun-26 19:27N 40°42' W 074°08'0 0.0
2015-Jun-26 18:30N 40°42' W 074°08'0 0.0
2015-Jun-26 17:30N 40°42' W 074°08'0 0.0
2015-Jun-26 16:30N 40°42' W 074°08'0 0.0
2015-Jun-26 15:30N 40°42' W 074°08'0 0.0
2015-Jun-26 14:33N 40°42' W 074°08'0 0.0
2015-Jun-26 13:30N 40°42' W 074°08'0 0.0
2015-Jun-26 12:30N 40°42' W 074°08'0 0.0
2015-Jun-26 11:18N 40°42' W 074°08'0 0.0
2015-Jun-26 10:30N 40°42' W 074°08'0 0.0
2015-Jun-26 09:33N 40°42' W 074°08'0 0.0
2015-Jun-26 08:30N 40°42' W 074°08'0 0.0
2015-Jun-26 07:30N 40°42' W 074°08'0 0.0
2015-Jun-26 06:18N 40°42' W 074°08'0 0.0
2015-Jun-26 05:30N 40°42' W 074°08'0 0.0
2015-Jun-26 04:30N 40°42' W 074°08'0 0.0
2015-Jun-26 03:30N 40°42' W 074°08'0 0.0
2015-Jun-26 02:30N 40°42' W 074°08'0 0.0
2015-Jun-26 01:24N 40°42' W 074°08'0 0.0
2015-Jun-26 00:30N 40°42' W 074°08'0 0.0
2015-Jun-25 23:24N 40°42' W 074°08'0 0.0
2015-Jun-25 22:24N 40°42' W 074°08'0 0.0
2015-Jun-25 21:24N 40°42' W 074°08'0 0.0
2015-Jun-25 20:30N 40°42' W 074°08'0 0.0
2015-Jun-25 19:12N 40°42' W 074°08'0 0.0
2015-Jun-25 18:24N 40°42' W 074°08'0 0.0
2015-Jun-25 17:30N 40°42' W 074°08'0 0.0
2015-Jun-25 16:30N 40°42' W 074°08'2 2.0
2015-Jun-25 15:33N 40°40' W 074°08'2 2.3
2015-Jun-25 14:33N 40°39' W 074°06'1 1.4
2015-Jun-25 13:29N 40°38' W 074°04'0 0.0
2015-Jun-25 12:32N 40°38' W 074°04'0 0.0
2015-Jun-25 11:32N 40°38' W 074°04'0 0.0
2015-Jun-25 10:32N 40°38' W 074°04'0 0.0
2015-Jun-25 09:32N 40°38' W 074°04'0 0.2
2015-Jun-25 08:32N 40°38' W 074°04'0 0.0
2015-Jun-25 07:29N 40°38' W 074°04'0 0.0
2015-Jun-25 06:32N 40°38' W 074°04'0 0.0
2015-Jun-25 05:32N 40°38' W 074°04'0 0.2
2015-Jun-25 04:32N 40°38' W 074°04'0 0.0
2015-Jun-25 03:32N 40°38' W 074°04'0 0.0
2015-Jun-25 02:32N 40°38' W 074°04'0 0.0
2015-Jun-25 01:32N 40°38' W 074°04'1 0.9
2015-Jun-25 00:33N 40°39' W 074°04'1 1.0
2015-Jun-24 23:33N 40°39' W 074°06'0 0.0
2015-Jun-24 22:33N 40°39' W 074°06'0 0.0
2015-Jun-24 21:33N 40°39' W 074°06'0 0.0
2015-Jun-24 20:33N 40°39' W 074°06'0 0.0
2015-Jun-24 19:33N 40°39' W 074°06'0 0.0
2015-Jun-24 18:30N 40°39' W 074°06'0 0.0
2015-Jun-24 17:33N 40°39' W 074°06'0 0.0
2015-Jun-24 16:33N 40°39' W 074°06'0 0.0
2015-Jun-24 15:33N 40°39' W 074°06'0 0.0
2015-Jun-24 14:27N 40°39' W 074°06'0 0.0
2015-Jun-24 13:33N 40°39' W 074°06'0 0.0
2015-Jun-24 12:33N 40°39' W 074°06'0 0.0
2015-Jun-24 11:30N 40°39' W 074°06'0 0.0
2015-Jun-24 10:33N 40°39' W 074°06'0 0.0
2015-Jun-24 09:33N 40°39' W 074°06'0 0.0
2015-Jun-24 08:33N 40°39' W 074°06'0 0.0
2015-Jun-24 07:33N 40°39' W 074°06'0 0.0
2015-Jun-24 06:15N 40°39' W 074°06'0 0.0
2015-Jun-24 05:30N 40°39' W 074°06'0 0.0
2015-Jun-24 04:33N 40°39' W 074°06'0 0.0
2015-Jun-24 03:27N 40°39' W 074°06'0 0.0
2015-Jun-24 02:33N 40°39' W 074°06'0 0.0
2015-Jun-24 01:33N 40°39' W 074°06'0 0.0
2015-Jun-24 00:33N 40°39' W 074°06'0 0.0
2015-Jun-23 23:33N 40°39' W 074°06'0 0.0
2015-Jun-23 22:27N 40°39' W 074°06'0 0.1
2015-Jun-23 21:31N 40°39' W 074°06'2 1.6
2015-Jun-23 20:31N 40°38' W 074°04'0 0.1
2015-Jun-23 19:31N 40°39' W 074°04'0 0.1
2015-Jun-23 19:04N 40°39' W 074°04'  
Track history (hours):
 
Tides and Currents Weather Stations Pressure Air Temp Water Temp Dewpoint Dewpoint Depression Visibility Wind Speed Wind Dir Waves Ship Positions

Stolt Jade

Last reported at 2015-Jul-03 05:33 UTC. Time now 2015-Jul-06 09:09 UTC.
Position N 25°47' W 079°39'.

Length 175 m; draft 9 m.

Type: Ship (hazmat cat C). MMSI: 319439000.

Date/timePositionNaut miles runAvg speedWind from/ knotsBaromVisibWave heightAir tempDewpointWater temp
2015-Jul-03 05:33N 25°47' W 079°39'1211.8
2015-Jul-03 04:33N 25°59' W 079°38'1211.8
2015-Jul-03 03:33N 26°11' W 079°36'1211.6
2015-Jul-03 02:30N 26°23' W 079°35'1111.5
2015-Jul-03 01:33N 26°34' W 079°34'1211.5
2015-Jul-03 00:32N 26°45' W 079°32'1211.8
2015-Jul-02 23:32N 26°57' W 079°31'1211.8
2015-Jul-02 22:32N 27°09' W 079°29'28212.2
2015-Jul-01 23:24N 31°46' W 080°25'1113.5
2015-Jul-01 22:34N 31°53' W 080°36'1312.7
2015-Jul-01 21:33N 32°01' W 080°48'9 9.1
2015-Jul-01 20:33N 32°04' W 080°58'6 6.5
2015-Jul-01 19:33N 32°05' W 081°05'2 1.6
2015-Jul-01 18:29N 32°06' W 081°07'0 0.0
2015-Jul-01 17:32N 32°06' W 081°07'0 0.0
2015-Jul-01 16:32N 32°06' W 081°07'0 0.0
2015-Jul-01 15:32N 32°06' W 081°07'0 0.0
2015-Jul-01 14:32N 32°06' W 081°07'0 0.0
2015-Jul-01 13:32N 32°06' W 081°07'0 0.0
2015-Jul-01 12:32N 32°06' W 081°07'0 0.0
2015-Jul-01 11:32N 32°06' W 081°07'0 0.0
2015-Jul-01 10:32N 32°06' W 081°07'2 1.7
2015-Jul-01 09:34N 32°05' W 081°05'8 8.0
2015-Jul-01 08:34N 32°03' W 080°56'1211.9
2015-Jul-01 07:34N 31°58' W 080°44'8 7.8
2015-Jul-01 06:33N 31°58' W 080°34'7 3.4
2015-Jul-01 04:29N 32°01' W 080°27'0 0.0
2015-Jun-30 20:05N 32°01' W 080°27'0 0.0
2015-Jun-30 19:29N 32°01' W 080°27'0 0.0
2015-Jun-30 18:29N 32°01' W 080°27'0 0.0
2015-Jun-30 17:32N 32°01' W 080°27'0 0.0
2015-Jun-30 16:23N 32°01' W 080°27'0 0.0
2015-Jun-30 15:32N 32°01' W 080°27'0 0.0
2015-Jun-30 13:20N 32°01' W 080°27'0 0.0
2015-Jun-30 12:32N 32°01' W 080°27'0 0.0
2015-Jun-30 11:23N 32°01' W 080°27'0 0.0
2015-Jun-30 09:32N 32°01' W 080°27'0 0.0
2015-Jun-30 08:29N 32°01' W 080°27'0 0.0
2015-Jun-30 07:32N 32°01' W 080°27'0 0.0
2015-Jun-30 06:32N 32°01' W 080°27'9 8.7
2015-Jun-30 05:33N 32°02' W 080°17'1413.9
2015-Jun-30 04:33N 32°05' W 080°01'  
2015-Jun-27 12:06N 37°22' W 074°01'1316.1
2015-Jun-27 11:19N 37°34' W 073°55'1315.9
2015-Jun-27 10:29N 37°46' W 073°50'3015.7
2015-Jun-27 08:34N 38°15' W 073°37'1515.3
2015-Jun-27 07:33N 38°30' W 073°31'1515.2
2015-Jun-27 06:34N 38°44' W 073°25'1515.3
2015-Jun-27 05:33N 38°59' W 073°18'1515.3
2015-Jun-27 04:33N 39°13' W 073°12'1515.0
2015-Jun-27 03:32N 39°28' W 073°05'1414.1
2015-Jun-27 02:33N 39°41' W 073°05'1414.6
2015-Jun-27 01:34N 39°54' W 073°15'1515.0
2015-Jun-27 00:34N 40°05' W 073°27'1514.9
2015-Jun-26 23:33N 40°17' W 073°39'1413.6
2015-Jun-26 22:31N 40°28' W 073°52'1212.8
2015-Jun-26 21:33N 40°37' W 074°03'5 5.3
2015-Jun-26 20:33N 40°40' W 074°09'2 1.8
2015-Jun-26 19:27N 40°42' W 074°08'0 0.0
2015-Jun-26 18:30N 40°42' W 074°08'0 0.0
2015-Jun-26 17:30N 40°42' W 074°08'0 0.0
2015-Jun-26 16:30N 40°42' W 074°08'0 0.0
2015-Jun-26 15:30N 40°42' W 074°08'0 0.0
2015-Jun-26 14:33N 40°42' W 074°08'0 0.0
2015-Jun-26 13:30N 40°42' W 074°08'0 0.0
2015-Jun-26 12:30N 40°42' W 074°08'0 0.0
2015-Jun-26 11:18N 40°42' W 074°08'0 0.0
2015-Jun-26 10:30N 40°42' W 074°08'0 0.0
2015-Jun-26 09:33N 40°42' W 074°08'0 0.0
2015-Jun-26 08:30N 40°42' W 074°08'0 0.0
2015-Jun-26 07:30N 40°42' W 074°08'0 0.0
2015-Jun-26 06:18N 40°42' W 074°08'0 0.0
2015-Jun-26 05:30N 40°42' W 074°08'0 0.0
2015-Jun-26 04:30N 40°42' W 074°08'0 0.0
2015-Jun-26 03:30N 40°42' W 074°08'0 0.0
2015-Jun-26 02:30N 40°42' W 074°08'0 0.0
2015-Jun-26 01:24N 40°42' W 074°08'0 0.0
2015-Jun-26 00:30N 40°42' W 074°08'0 0.0
2015-Jun-25 23:24N 40°42' W 074°08'0 0.0
2015-Jun-25 22:24N 40°42' W 074°08'0 0.0
2015-Jun-25 21:24N 40°42' W 074°08'0 0.0
2015-Jun-25 20:30N 40°42' W 074°08'0 0.0
2015-Jun-25 19:12N 40°42' W 074°08'0 0.0
2015-Jun-25 18:24N 40°42' W 074°08'0 0.0
2015-Jun-25 17:30N 40°42' W 074°08'0 0.0
2015-Jun-25 16:30N 40°42' W 074°08'2 2.0
2015-Jun-25 15:33N 40°40' W 074°08'2 2.3
2015-Jun-25 14:33N 40°39' W 074°06'1 1.4
2015-Jun-25 13:29N 40°38' W 074°04'0 0.0
2015-Jun-25 12:32N 40°38' W 074°04'0 0.0
2015-Jun-25 11:32N 40°38' W 074°04'0 0.0
2015-Jun-25 10:32N 40°38' W 074°04'0 0.0
2015-Jun-25 09:32N 40°38' W 074°04'0 0.2
2015-Jun-25 08:32N 40°38' W 074°04'0 0.0
2015-Jun-25 07:29N 40°38' W 074°04'0 0.0
2015-Jun-25 06:32N 40°38' W 074°04'0 0.0
2015-Jun-25 05:32N 40°38' W 074°04'0 0.2
2015-Jun-25 04:32N 40°38' W 074°04'0 0.0
2015-Jun-25 03:32N 40°38' W 074°04'0 0.0
2015-Jun-25 02:32N 40°38' W 074°04'0 0.0
2015-Jun-25 01:32N 40°38' W 074°04'1 0.9
2015-Jun-25 00:33N 40°39' W 074°04'1 1.0
2015-Jun-24 23:33N 40°39' W 074°06'0 0.0
2015-Jun-24 22:33N 40°39' W 074°06'0 0.0
2015-Jun-24 21:33N 40°39' W 074°06'0 0.0
2015-Jun-24 20:33N 40°39' W 074°06'0 0.0
2015-Jun-24 19:33N 40°39' W 074°06'0 0.0
2015-Jun-24 18:30N 40°39' W 074°06'0 0.0
2015-Jun-24 17:33N 40°39' W 074°06'0 0.0
2015-Jun-24 16:33N 40°39' W 074°06'0 0.0
2015-Jun-24 15:33N 40°39' W 074°06'0 0.0
2015-Jun-24 14:27N 40°39' W 074°06'0 0.0
2015-Jun-24 13:33N 40°39' W 074°06'0 0.0
2015-Jun-24 12:33N 40°39' W 074°06'0 0.0
2015-Jun-24 11:30N 40°39' W 074°06'0 0.0
2015-Jun-24 10:33N 40°39' W 074°06'0 0.0
2015-Jun-24 09:33N 40°39' W 074°06'0 0.0
2015-Jun-24 08:33N 40°39' W 074°06'0 0.0
2015-Jun-24 07:33N 40°39' W 074°06'0 0.0
2015-Jun-24 06:15N 40°39' W 074°06'0 0.0
2015-Jun-24 05:30N 40°39' W 074°06'0 0.0
2015-Jun-24 04:33N 40°39' W 074°06'0 0.0
2015-Jun-24 03:27N 40°39' W 074°06'0 0.0
2015-Jun-24 02:33N 40°39' W 074°06'0 0.0
2015-Jun-24 01:33N 40°39' W 074°06'0 0.0
2015-Jun-24 00:33N 40°39' W 074°06'0 0.0
2015-Jun-23 23:33N 40°39' W 074°06'0 0.0
2015-Jun-23 22:27N 40°39' W 074°06'0 0.1
2015-Jun-23 21:31N 40°39' W 074°06'2 1.6
2015-Jun-23 20:31N 40°38' W 074°04'0 0.1
2015-Jun-23 19:31N 40°39' W 074°04'0 0.1
2015-Jun-23 19:04N 40°39' W 074°04'  

Dump ship's entire track history